Lyons, CO (80540)

8:32 PM MDT on August 04, 2015 (GMT -0600)
Kelling | | Change Station
CLOSE
Current Station
Personal Weather Station
Location: Lyons, CO
Elevation: 5436 ft
Nearby Weather Stations

Elev 5436 ft 40.22 °N, 105.26 °W | Updated 2 seconds ago

Clear
Clear
81.0 °F
Feels Like 79 °F
N
0.7
Wind Variable Wind from South
Gusts 4.5 mph

Today
High -- | Low -- °F
--% Chance of Precip.
Yesterday
High -- | Low -- °F
Precip. -- in
6:01 AM 8:12 PM
Waning Gibbous, 72% visible
Pressure 30.09 in
Visibility 10.0 miles
Clouds Clear
Heat Index 79 °F
Dew Point 31 °F
Humidity 16%
Rainfall 0.00 in
Snow Depth Not available.
UV 0 out of 12
Pollen 7.60 out of 12
Air Quality Not available.
Flu Activity Not available.
METAR KLMO 050214Z AUTO 30008KT 10SM CLR 26/02 A3009 RMK AO2 T02630019 PWINO

More Conditions Fewer Conditions

Pressure 30.09 in
Visibility 10.0 miles
Clouds Clear
Heat Index 79 °F
Dew Point 31 °F
Humidity 16%
Rainfall 0.00 in
Snow Depth Not available.
UV 0 out of 12
Pollen 7.60 out of 12
Air Quality Not available.
Flu Activity Not available.
METAR KLMO 050214Z AUTO 30008KT 10SM CLR 26/02 A3009 RMK AO2 T02630019 PWINO

More Conditions Fewer Conditions

10-Day Weather Forecast

×

Almanac

Astronomy

Aug. 04, 2015 Rise Set
Actual Time
Civil Twilight
Nautical Twilight
Astronomical Twilight
Moon
Length of Visible Light
Length of Day
Tomorrow will be .
, % of the Moon is Illuminated

Today's Extremes

State Highs State Lows

Community

WunderPhotos

Upload Photos

1,844,087 photos uploaded!

WunderBlogs® & News

Nearby

Air Quality

  Air Quality AQ Index Pollutant
Not available.

Snow Depth

Station Depth Elevation

Earthquake Activity

City Distance Mag. Time & Date
Minimum magnitude displayed is 2.5.

Coastal Water Temperatures

Place Temperature

Stations

Nearby Weather Stations

Station Location Temp. Windchill Dew Point Humidity Wind Precip. Elev Updated Type